Time;durP1;ratioP1;P1;durP2;ratioP2;P2;SDS_P1;SDS_P2;PMS_P1;PMS_P2;Temp;Humidity;BMP_temperature;BMP_pressure;BME280_temperature;BME280_humidity;BME280_pressure;Samples;Min_cycle;Max_cycle;Signal;HPM_P1;HPM_P2
2023/01/20 00:01:37;;;;;;;15.50;10.75;;;;;;;;;;4924400;29;20502;-85
2023/01/20 00:04:05;;;;;;;14.68;9.98;;;;;;;;;;4927392;29;20067;-84
2023/01/20 00:06:35;;;;;;;10.60;8.90;;;;;;;;;;4932127;29;20047;-85
2023/01/20 00:09:05;;;;;;;15.20;10.25;;;;;;;;;;4929112;29;20059;-84
2023/01/20 00:11:35;;;;;;;14.27;10.25;;;;;;;;;;4933947;29;20059;-84
2023/01/20 00:14:03;;;;;;;14.82;11.13;;;;;;;;;;4927998;29;20402;-84
2023/01/20 00:16:32;;;;;;;12.90;11.02;;;;;;;;;;4928681;29;20502;-84
2023/01/20 00:19:01;;;;;;;16.17;11.65;;;;;;;;;;4926988;29;21078;-84
2023/01/20 00:21:31;;;;;;;14.48;10.13;;;;;;;;;;4931575;29;20051;-84
2023/01/20 00:24:00;;;;;;;15.00;10.93;;;;;;;;;;4913605;29;20063;-85
2023/01/20 00:26:27;;;;;;;13.98;12.27;;;;;;;;;;4911391;29;20048;-84
2023/01/20 00:28:57;;;;;;;15.57;10.60;;;;;;;;;;4933877;29;20048;-85
2023/01/20 00:31:30;;;;;;;12.55;10.80;;;;;;;;;;4935764;29;20058;-84
2023/01/20 00:34:01;;;;;;;12.40;10.60;;;;;;;;;;4932165;29;20047;-84
2023/01/20 00:36:31;;;;;;;13.05;11.35;;;;;;;;;;4915124;29;20051;-85
2023/01/20 00:38:59;;;;;;;12.85;10.13;;;;;;;;;;4928111;29;20406;-85
2023/01/20 00:41:26;;;;;;;15.88;10.40;;;;;;;;;;4934113;29;20090;-85
2023/01/20 00:43:53;;;;;;;12.02;10.35;;;;;;;;;;4932970;29;20043;-84
2023/01/20 00:46:21;;;;;;;11.43;10.02;;;;;;;;;;4931098;29;20048;-84
2023/01/20 00:48:50;;;;;;;20.42;9.95;;;;;;;;;;4940088;23;20051;-84
2023/01/20 00:51:20;;;;;;;15.55;9.85;;;;;;;;;;4952031;29;20058;-84
2023/01/20 00:53:52;;;;;;;13.80;10.45;;;;;;;;;;4953332;28;20123;-84
2023/01/20 00:56:21;;;;;;;17.02;10.30;;;;;;;;;;4954815;29;20070;-84
2023/01/20 00:58:48;;;;;;;16.25;12.77;;;;;;;;;;4953104;28;20066;-84
2023/01/20 01:01:16;;;;;;;17.38;13.98;;;;;;;;;;4955721;29;20062;-84
2023/01/20 01:03:45;;;;;;;14.75;11.50;;;;;;;;;;4951395;28;20043;-84
2023/01/20 01:06:15;;;;;;;14.20;12.10;;;;;;;;;;4952666;29;20060;-84
2023/01/20 01:08:43;;;;;;;15.35;12.20;;;;;;;;;;4947508;28;20055;-85
2023/01/20 01:11:11;;;;;;;13.30;11.00;;;;;;;;;;4952181;28;20055;-84
2023/01/20 01:13:38;;;;;;;15.75;12.32;;;;;;;;;;4949826;29;20047;-84
2023/01/20 01:16:10;;;;;;;16.23;13.40;;;;;;;;;;4952535;29;20066;-85
2023/01/20 01:18:37;;;;;;;16.20;13.65;;;;;;;;;;4944114;28;20054;-85
2023/01/20 01:21:09;;;;;;;13.95;11.45;;;;;;;;;;4935089;29;20059;-85
2023/01/20 01:23:37;;;;;;;15.82;11.70;;;;;;;;;;4950703;29;20043;-85
2023/01/20 01:26:05;;;;;;;15.13;11.77;;;;;;;;;;4934393;29;20051;-85
2023/01/20 01:28:32;;;;;;;17.85;13.55;;;;;;;;;;4947000;28;20058;-85
2023/01/20 01:31:00;;;;;;;13.38;10.70;;;;;;;;;;4949951;29;20043;-85
2023/01/20 01:33:30;;;;;;;14.30;12.18;;;;;;;;;;4951571;28;20043;-85
2023/01/20 01:36:01;;;;;;;14.13;10.10;;;;;;;;;;4951185;29;20390;-85
2023/01/20 01:38:31;;;;;;;16.55;12.02;;;;;;;;;;4949304;28;20058;-85
2023/01/20 01:41:00;;;;;;;17.15;11.82;;;;;;;;;;4949385;28;20046;-85
2023/01/20 01:43:29;;;;;;;13.07;10.90;;;;;;;;;;4936148;29;22154;-85
2023/01/20 01:45:56;;;;;;;17.63;12.57;;;;;;;;;;4944583;29;20524;-85
2023/01/20 01:48:26;;;;;;;14.20;12.07;;;;;;;;;;4950433;28;20058;-84
2023/01/20 01:50:56;;;;;;;15.13;13.55;;;;;;;;;;4930960;29;20062;-85
2023/01/20 01:53:26;;;;;;;16.50;13.27;;;;;;;;;;4947762;28;20050;-85
2023/01/20 01:56:13;;;;;;;15.73;12.98;;;;;;;;;;4907202;29;20114;-85
2023/01/20 01:58:46;;;;;;;15.38;12.60;;;;;;;;;;4947738;28;20471;-85
2023/01/20 02:01:16;;;;;;;16.63;12.48;;;;;;;;;;4952184;29;20039;-85
2023/01/20 02:03:46;;;;;;;15.43;12.68;;;;;;;;;;4948168;28;20127;-85
2023/01/20 02:06:16;;;;;;;18.30;12.63;;;;;;;;;;4948520;28;20055;-85
2023/01/20 02:08:48;;;;;;;17.55;12.93;;;;;;;;;;4932012;29;20579;-85
2023/01/20 02:11:19;;;;;;;16.60;12.85;;;;;;;;;;4934386;29;20457;-84
2023/01/20 02:13:46;;;;;;;12.63;10.80;;;;;;;;;;4946603;29;20635;-85
2023/01/20 02:16:18;;;;;;;20.83;15.60;;;;;;;;;;4950999;29;20047;-84
2023/01/20 02:18:58;;;;;;;16.05;12.55;;;;;;;;;;4948951;28;20051;-85
2023/01/20 02:21:58;;;;;;;17.73;13.32;;;;;;;;;;4952588;28;20062;-85
2023/01/20 02:24:49;;;;;;;14.32;12.77;;;;;;;;;;4923047;28;20055;-85
2023/01/20 02:27:28;;;;;;;16.35;14.18;;;;;;;;;;4951477;29;20502;-85
2023/01/20 02:30:23;;;;;;;17.23;12.65;;;;;;;;;;4948011;28;20058;-85
2023/01/20 02:32:56;;;;;;;15.55;12.10;;;;;;;;;;4922092;29;20047;-85
2023/01/20 02:35:30;;;;;;;15.10;12.85;;;;;;;;;;4947762;28;20039;-85
2023/01/20 02:38:06;;;;;;;20.73;13.93;;;;;;;;;;4949392;28;20058;-85
2023/01/20 02:40:41;;;;;;;16.48;13.65;;;;;;;;;;4948988;29;20051;-85
2023/01/20 02:43:14;;;;;;;16.88;13.68;;;;;;;;;;4951014;28;20066;-85
2023/01/20 02:45:48;;;;;;;18.25;14.68;;;;;;;;;;4930024;29;20051;-85
2023/01/20 02:48:20;;;;;;;;;;;;;;;;;;4946970;28;20055;-85
2023/01/20 02:50:53;;;;;;;16.05;13.77;;;;;;;;;;4951588;29;19933;-85
2023/01/20 02:53:26;;;;;;;15.80;14.20;;;;;;;;;;4949480;28;20036;-85
2023/01/20 02:55:54;;;;;;;19.60;13.15;;;;;;;;;;4948248;28;20054;-84
2023/01/20 02:58:25;;;;;;;18.10;15.25;;;;;;;;;;4947335;28;20055;-85
2023/01/20 03:00:55;;;;;;;21.08;15.27;;;;;;;;;;4951979;29;20066;-84
2023/01/20 03:03:28;;;;;;;17.67;14.63;;;;;;;;;;4931021;29;20066;-85
2023/01/20 03:05:58;;;;;;;14.50;13.00;;;;;;;;;;4950188;28;20059;-85
2023/01/20 03:08:30;;;;;;;17.30;13.05;;;;;;;;;;4949439;28;20051;-84
2023/01/20 03:10:59;;;;;;;16.13;13.57;;;;;;;;;;4949057;29;20055;-84
2023/01/20 03:13:33;;;;;;;16.80;12.52;;;;;;;;;;4946094;29;20059;-85
2023/01/20 03:16:03;;;;;;;;;;;;;;;;;;4932976;28;20062;-85
2023/01/20 03:18:34;;;;;;;24.00;16.17;;;;;;;;;;4944689;28;19922;-84
2023/01/20 03:21:03;;;;;;;23.92;14.07;;;;;;;;;;4951025;28;20058;-84
2023/01/20 03:23:32;;;;;;;19.17;14.70;;;;;;;;;;4948457;29;20043;-85
2023/01/20 03:26:07;;;;;;;19.65;14.75;;;;;;;;;;4940316;28;20050;-84
2023/01/20 03:28:34;;;;;;;25.42;15.68;;;;;;;;;;4947376;28;20050;-85
2023/01/20 03:31:12;;;;;;;23.38;17.27;;;;;;;;;;4927278;29;20047;-84
2023/01/20 03:33:40;;;;;;;20.15;14.45;;;;;;;;;;4946752;29;20585;-85
2023/01/20 03:36:16;;;;;;;17.60;15.18;;;;;;;;;;4950692;28;20071;-84
2023/01/20 03:38:44;;;;;;;17.38;13.77;;;;;;;;;;4933031;29;20066;-85
2023/01/20 03:41:20;;;;;;;24.17;17.98;;;;;;;;;;4950060;29;20058;-85
2023/01/20 03:43:55;;;;;;;26.58;19.83;;;;;;;;;;4947916;29;20048;-85
2023/01/20 03:46:28;;;;;;;35.65;17.45;;;;;;;;;;4950547;29;20056;-84
2023/01/20 03:49:08;;;;;;;24.10;17.85;;;;;;;;;;4928965;29;20058;-85
2023/01/20 03:51:42;;;;;;;18.40;15.75;;;;;;;;;;4949091;28;20058;-84
2023/01/20 03:54:17;;;;;;;20.42;16.45;;;;;;;;;;4931802;29;20050;-84
2023/01/20 03:56:51;;;;;;;22.95;16.27;;;;;;;;;;4933596;29;20058;-84
2023/01/20 03:59:19;;;;;;;21.30;16.88;;;;;;;;;;4946579;28;20406;-84
2023/01/20 04:01:47;;;;;;;19.75;15.35;;;;;;;;;;4951689;29;20047;-85
2023/01/20 04:04:17;;;;;;;18.08;14.45;;;;;;;;;;4950765;28;20043;-84
2023/01/20 04:06:48;;;;;;;21.88;16.10;;;;;;;;;;4950111;29;20054;-84
2023/01/20 04:09:22;;;;;;;22.02;15.93;;;;;;;;;;4951643;28;20417;-85
2023/01/20 04:11:51;;;;;;;17.92;13.55;;;;;;;;;;4934847;29;20051;-84
2023/01/20 04:14:18;;;;;;;20.63;17.83;;;;;;;;;;4952698;28;20046;-84
2023/01/20 04:16:51;;;;;;;25.13;17.75;;;;;;;;;;4947471;29;20544;-85
2023/01/20 04:19:21;;;;;;;17.40;14.13;;;;;;;;;;4950589;28;20062;-84
2023/01/20 04:21:55;;;;;;;19.00;14.65;;;;;;;;;;4954339;29;20517;-84
2023/01/20 04:24:26;;;;;;;18.25;16.48;;;;;;;;;;4954110;29;20047;-84
2023/01/20 04:26:55;;;;;;;13.60;12.20;;;;;;;;;;4951920;29;20059;-84
2023/01/20 04:29:22;;;;;;;20.15;14.52;;;;;;;;;;4950067;28;20303;-84
2023/01/20 04:31:50;;;;;;;16.65;13.98;;;;;;;;;;4953366;29;20066;-84
2023/01/20 04:34:19;;;;;;;26.10;17.85;;;;;;;;;;4931158;29;20048;-84
2023/01/20 04:36:48;;;;;;;16.17;13.45;;;;;;;;;;4951622;29;20421;-84
2023/01/20 04:39:17;;;;;;;23.17;16.85;;;;;;;;;;4948634;29;20054;-84
2023/01/20 04:41:47;;;;;;;20.60;16.13;;;;;;;;;;4935269;29;20525;-85
2023/01/20 04:44:16;;;;;;;26.48;17.80;;;;;;;;;;4950474;28;20524;-85
2023/01/20 04:46:46;;;;;;;18.38;16.25;;;;;;;;;;4950401;28;20426;-84
2023/01/20 04:49:16;;;;;;;20.73;15.68;;;;;;;;;;4948244;28;20081;-84
2023/01/20 04:51:43;;;;;;;17.65;14.70;;;;;;;;;;4950286;28;20410;-84
2023/01/20 04:54:12;;;;;;;21.55;16.02;;;;;;;;;;4952497;28;20047;-84
2023/01/20 04:56:39;;;;;;;17.55;15.00;;;;;;;;;;4952434;29;20055;-84
2023/01/20 04:59:06;;;;;;;18.67;14.95;;;;;;;;;;4935156;29;20051;-85
2023/01/20 05:01:36;;;;;;;19.05;15.02;;;;;;;;;;4952188;28;20054;-84
2023/01/20 05:04:05;;;;;;;22.55;16.65;;;;;;;;;;4948685;29;20066;-84
2023/01/20 05:06:34;;;;;;;19.63;13.93;;;;;;;;;;4947741;29;20055;-84
2023/01/20 05:09:01;;;;;;;19.13;16.05;;;;;;;;;;4950147;28;20043;-84
2023/01/20 05:11:29;;;;;;;21.50;17.23;;;;;;;;;;4949359;29;20070;-84
2023/01/20 05:13:59;;;;;;;17.13;13.40;;;;;;;;;;4949785;28;20536;-84
2023/01/20 05:16:30;;;;;;;19.10;15.82;;;;;;;;;;4952869;28;20433;-84
2023/01/20 05:19:01;;;;;;;20.95;15.95;;;;;;;;;;4946408;28;20131;-84
2023/01/20 05:21:28;;;;;;;20.38;16.20;;;;;;;;;;4951645;29;20047;-84
2023/01/20 05:23:56;;;;;;;24.13;18.52;;;;;;;;;;4951150;28;20043;-84
2023/01/20 05:26:26;;;;;;;18.98;16.58;;;;;;;;;;4935659;29;20047;-84
2023/01/20 05:28:56;;;;;;;24.00;16.63;;;;;;;;;;4941405;28;20066;-84
2023/01/20 05:31:24;;;;;;;25.10;18.85;;;;;;;;;;4950385;29;20047;-83
2023/01/20 05:33:51;;;;;;;20.48;16.50;;;;;;;;;;4932907;29;20048;-84
2023/01/20 05:36:18;;;;;;;20.95;15.40;;;;;;;;;;4933330;29;20076;-83
2023/01/20 05:38:48;;;;;;;18.88;16.70;;;;;;;;;;4950845;28;20509;-83
2023/01/20 05:41:17;;;;;;;18.15;15.48;;;;;;;;;;4950755;29;20058;-83
2023/01/20 05:43:44;;;;;;;21.40;16.75;;;;;;;;;;4952131;29;20048;-83
2023/01/20 05:46:15;;;;;;;17.10;14.13;;;;;;;;;;4946653;29;20059;-83
2023/01/20 05:48:45;;;;;;;20.98;18.50;;;;;;;;;;4922146;29;20078;-83
2023/01/20 05:51:14;;;;;;;17.52;13.90;;;;;;;;;;4929531;28;20054;-83
2023/01/20 05:53:44;;;;;;;25.05;18.40;;;;;;;;;;4936925;29;20047;-83
2023/01/20 05:56:14;;;;;;;22.27;17.77;;;;;;;;;;4929810;28;20117;-83
2023/01/20 05:58:44;;;;;;;23.77;17.38;;;;;;;;;;4933231;28;20380;-83
2023/01/20 06:01:13;;;;;;;19.85;17.70;;;;;;;;;;4931843;28;20058;-83
2023/01/20 06:03:42;;;;;;;22.58;17.77;;;;;;;;;;4931677;28;20043;-83
2023/01/20 06:06:14;;;;;;;27.25;17.95;;;;;;;;;;4917959;28;20163;-83
2023/01/20 06:08:44;;;;;;;21.55;19.13;;;;;;;;;;4932839;28;20066;-83
2023/01/20 06:11:12;;;;;;;20.48;17.30;;;;;;;;;;4937806;28;20062;-83
2023/01/20 06:13:39;;;;;;;24.17;18.75;;;;;;;;;;4920523;28;20047;-83
2023/01/20 06:16:09;;;;;;;27.40;20.42;;;;;;;;;;4932557;28;20052;-83
2023/01/20 06:18:42;;;;;;;25.13;17.25;;;;;;;;;;4934471;28;20063;-84
2023/01/20 06:21:10;;;;;;;23.15;17.35;;;;;;;;;;4933245;28;20465;-83
2023/01/20 06:23:40;;;;;;;25.25;18.17;;;;;;;;;;4951371;28;20059;-83
2023/01/20 06:26:09;;;;;;;29.63;21.75;;;;;;;;;;4953446;28;20120;-83
2023/01/20 06:28:39;;;;;;;26.55;18.45;;;;;;;;;;4953349;28;20054;-83
2023/01/20 06:31:10;;;;;;;18.98;16.98;;;;;;;;;;4936743;28;20058;-84
2023/01/20 06:33:37;;;;;;;24.02;19.23;;;;;;;;;;4953205;28;20043;-84
2023/01/20 06:36:12;;;;;;;22.30;18.20;;;;;;;;;;4951083;28;20031;-84
2023/01/20 06:38:43;;;;;;;25.35;21.25;;;;;;;;;;4921498;28;20061;-84
2023/01/20 06:41:13;;;;;;;21.02;17.15;;;;;;;;;;4931947;28;20081;-83
2023/01/20 06:43:40;;;;;;;26.95;19.80;;;;;;;;;;4927359;28;20051;-84
2023/01/20 06:46:12;;;;;;;25.55;19.48;;;;;;;;;;4932789;28;20070;-84
2023/01/20 06:48:42;;;;;;;24.13;20.73;;;;;;;;;;5349937;23;20016;-88
2023/01/20 06:51:16;;;;;;;28.02;19.98;;;;;;;;;;4927473;29;20047;-88
2023/01/20 06:53:49;;;;;;;27.58;20.35;;;;;;;;;;4944740;28;20055;-88
2023/01/20 06:56:17;;;;;;;28.48;22.20;;;;;;;;;;4908975;29;20052;-87
2023/01/20 06:58:44;;;;;;;28.23;19.67;;;;;;;;;;4893437;29;20413;-89
2023/01/20 07:01:16;;;;;;;31.30;22.63;;;;;;;;;;4909474;29;20555;-88
2023/01/20 07:03:47;;;;;;;25.55;20.45;;;;;;;;;;4925925;29;20066;-89
2023/01/20 07:06:20;;;;;;;34.03;25.20;;;;;;;;;;4915838;29;20054;-89
2023/01/20 07:08:52;;;;;;;29.23;23.65;;;;;;;;;;4931034;29;20044;-88
2023/01/20 07:11:19;;;;;;;31.95;22.55;;;;;;;;;;4930908;29;20087;-89
2023/01/20 07:13:47;;;;;;;42.25;25.40;;;;;;;;;;4927127;29;20048;-88
2023/01/20 07:16:14;;;;;;;30.20;24.23;;;;;;;;;;4918195;29;20054;-87
2023/01/20 07:18:48;;;;;;;27.10;21.83;;;;;;;;;;4930311;29;20056;-88
2023/01/20 07:21:15;;;;;;;34.67;22.95;;;;;;;;;;4929799;29;20417;-88
2023/01/20 07:23:46;;;;;;;29.42;21.25;;;;;;;;;;4932307;29;20524;-90
2023/01/20 07:26:15;;;;;;;30.23;22.92;;;;;;;;;;4937520;29;20047;-88
2023/01/20 07:28:43;;;;;;;28.55;21.52;;;;;;;;;;4931670;29;20090;-90
2023/01/20 07:31:14;;;;;;;24.55;20.55;;;;;;;;;;4933036;29;20039;-89
2023/01/20 07:33:42;;;;;;;32.83;22.40;;;;;;;;;;4914114;29;20052;-88
2023/01/20 07:36:12;;;;;;;36.28;25.80;;;;;;;;;;4927649;29;20063;-89
2023/01/20 07:38:40;;;;;;;27.80;20.55;;;;;;;;;;4924737;29;20048;-88
2023/01/20 07:41:15;;;;;;;33.17;20.27;;;;;;;;;;4931529;29;20528;-89
2023/01/20 07:43:43;;;;;;;28.33;20.00;;;;;;;;;;4936402;29;20552;-88
2023/01/20 07:46:11;;;;;;;28.35;24.63;;;;;;;;;;4920877;29;21656;-88
2023/01/20 07:48:56;;;;;;;30.53;22.53;;;;;;;;;;4918388;29;20055;-87
2023/01/20 07:51:23;;;;;;;29.98;23.13;;;;;;;;;;4933451;29;20036;-86
2023/01/20 07:53:53;;;;;;;35.58;25.33;;;;;;;;;;4918447;29;20055;-90
2023/01/20 07:56:29;;;;;;;32.35;23.88;;;;;;;;;;4936826;29;20047;-89
2023/01/20 07:58:57;;;;;;;31.63;24.67;;;;;;;;;;4918825;29;20055;-87
2023/01/20 08:01:28;;;;;;;34.83;27.38;;;;;;;;;;4917521;29;20060;-88
2023/01/20 08:03:56;;;;;;;34.63;27.92;;;;;;;;;;4931796;29;20048;-88
2023/01/20 08:06:26;;;;;;;32.90;25.48;;;;;;;;;;4934724;29;20527;-88
2023/01/20 08:09:00;;;;;;;36.25;26.02;;;;;;;;;;4918951;29;21709;-88
2023/01/20 08:11:30;;;;;;;40.13;27.63;;;;;;;;;;4930321;29;20047;-89
2023/01/20 08:13:58;;;;;;;36.47;25.05;;;;;;;;;;4933558;29;20059;-87
2023/01/20 08:16:28;;;;;;;38.63;28.30;;;;;;;;;;4920349;29;20054;-87
2023/01/20 08:18:55;;;;;;;35.20;25.00;;;;;;;;;;4936148;29;20046;-87
2023/01/20 08:21:30;;;;;;;36.38;23.58;;;;;;;;;;4919770;29;20051;-87
2023/01/20 08:24:03;;;;;;;41.13;28.15;;;;;;;;;;4918651;29;20044;-87
2023/01/20 08:26:32;;;;;;;30.30;23.90;;;;;;;;;;4937562;29;20051;-86
2023/01/20 08:29:05;;;;;;;34.05;25.25;;;;;;;;;;4921203;29;20050;-87
2023/01/20 08:31:33;;;;;;;33.28;25.60;;;;;;;;;;4917280;29;20044;-87
2023/01/20 08:34:03;;;;;;;39.78;26.83;;;;;;;;;;4917151;29;20051;-88
2023/01/20 08:36:32;;;;;;;35.40;26.20;;;;;;;;;;4921271;29;20524;-87
2023/01/20 08:39:05;;;;;;;35.83;24.00;;;;;;;;;;4921558;29;20052;-87
2023/01/20 08:41:41;;;;;;;34.15;26.42;;;;;;;;;;4919580;29;20051;-88
2023/01/20 08:44:10;;;;;;;;;;;;;;;;;;4914676;29;20059;-88
2023/01/20 08:46:42;;;;;;;27.88;23.65;;;;;;;;;;4920296;29;19927;-87
2023/01/20 08:49:15;;;;;;;33.08;24.65;;;;;;;;;;4924785;29;20052;-88
2023/01/20 08:51:43;;;;;;;33.45;25.83;;;;;;;;;;4926546;29;20048;-88
2023/01/20 08:54:14;;;;;;;30.77;25.77;;;;;;;;;;4918409;29;20048;-88
2023/01/20 08:56:43;;;;;;;32.42;25.23;;;;;;;;;;4936200;29;20051;-88
2023/01/20 08:59:15;;;;;;;32.78;25.30;;;;;;;;;;4905355;29;20058;-87
2023/01/20 09:01:53;;;;;;;47.95;26.10;;;;;;;;;;4930653;29;20039;-88
2023/01/20 09:04:23;;;;;;;30.60;24.85;;;;;;;;;;4930693;29;20066;-90
2023/01/20 09:07:02;;;;;;;34.88;27.75;;;;;;;;;;4920984;29;20060;-88
2023/01/20 09:09:32;;;;;;;35.67;24.75;;;;;;;;;;4918651;29;20047;-90
2023/01/20 09:12:04;;;;;;;33.88;27.25;;;;;;;;;;4932458;29;20039;-87
2023/01/20 09:14:33;;;;;;;41.95;30.60;;;;;;;;;;4914718;29;20059;-89
2023/01/20 09:17:03;;;;;;;31.63;26.58;;;;;;;;;;4934455;29;20055;-87
2023/01/20 09:19:30;;;;;;;35.60;28.30;;;;;;;;;;4917746;29;20052;-88
2023/01/20 09:21:58;;;;;;;39.60;23.25;;;;;;;;;;4948213;29;20056;-87
2023/01/20 09:24:25;;;;;;;36.72;28.05;;;;;;;;;;4916909;29;20060;-87
2023/01/20 09:26:53;;;;;;;31.08;23.63;;;;;;;;;;4933924;29;20532;-87
2023/01/20 09:29:23;;;;;;;33.03;26.25;;;;;;;;;;4919086;29;20452;-87
2023/01/20 09:31:56;;;;;;;36.80;27.20;;;;;;;;;;4931431;29;20051;-87
2023/01/20 09:34:28;;;;;;;32.80;23.63;;;;;;;;;;4929731;29;20055;-88
2023/01/20 09:36:57;;;;;;;27.45;21.95;;;;;;;;;;4919131;29;20067;-87
2023/01/20 09:45:23;;;;;;;33.95;24.52;;;;;;;;;;4928413;29;20073;-90
2023/01/20 09:47:51;;;;;;;34.90;24.70;;;;;;;;;;4935365;29;20055;-87
2023/01/20 09:53:29;;;;;;;32.40;25.88;;;;;;;;;;4920459;29;20052;-87
2023/01/20 09:56:01;;;;;;;28.10;21.27;;;;;;;;;;4931311;29;20058;-87
2023/01/20 09:58:35;;;;;;;28.48;21.88;;;;;;;;;;4932089;29;20056;-87
2023/01/20 10:01:10;;;;;;;24.20;20.30;;;;;;;;;;4905676;29;20075;-88
2023/01/20 10:03:45;;;;;;;28.10;20.08;;;;;;;;;;4919700;29;20052;-88
2023/01/20 10:06:19;;;;;;;32.05;23.10;;;;;;;;;;4937937;29;20051;-88
2023/01/20 10:08:52;;;;;;;29.50;20.60;;;;;;;;;;4926019;29;20074;-87
2023/01/20 10:11:20;;;;;;;28.70;19.92;;;;;;;;;;4933744;29;20039;-87
2023/01/20 10:13:51;;;;;;;29.42;19.00;;;;;;;;;;4928450;29;20067;-87
2023/01/20 10:16:28;;;;;;;24.83;18.92;;;;;;;;;;4916625;29;20067;-88
2023/01/20 10:19:04;;;;;;;28.63;19.83;;;;;;;;;;4931577;29;20051;-87
2023/01/20 10:21:35;;;;;;;25.75;21.33;;;;;;;;;;4919082;29;20052;-87
2023/01/20 10:24:08;;;;;;;32.88;21.90;;;;;;;;;;4922665;29;20674;-87
2023/01/20 10:26:42;;;;;;;28.58;20.52;;;;;;;;;;4928154;29;20052;-87
2023/01/20 10:29:21;;;;;;;26.73;20.98;;;;;;;;;;4924753;29;20066;-87
2023/01/20 10:31:54;;;;;;;22.55;18.30;;;;;;;;;;4918646;29;20055;-87
2023/01/20 10:34:22;;;;;;;29.20;20.40;;;;;;;;;;4932191;29;20440;-87
2023/01/20 10:36:54;;;;;;;23.05;20.45;;;;;;;;;;4934071;29;20067;-87
2023/01/20 10:39:30;;;;;;;29.52;19.42;;;;;;;;;;4916692;29;20048;-88
2023/01/20 10:42:03;;;;;;;24.27;20.33;;;;;;;;;;4938603;29;20051;-87
2023/01/20 10:44:34;;;;;;;26.02;19.13;;;;;;;;;;4932165;29;20051;-88
2023/01/20 10:47:21;;;;;;;23.60;19.40;;;;;;;;;;4915601;29;20039;-88
2023/01/20 10:50:02;;;;;;;27.20;20.08;;;;;;;;;;4913748;29;20576;-87
2023/01/20 10:52:58;;;;;;;25.33;20.02;;;;;;;;;;4893100;29;20048;-87
2023/01/20 10:55:37;;;;;;;27.92;19.77;;;;;;;;;;4914221;29;20051;-87
2023/01/20 10:58:10;;;;;;;22.38;17.60;;;;;;;;;;4919320;29;20044;-86
2023/01/20 11:00:39;;;;;;;23.27;18.23;;;;;;;;;;4924571;29;20060;-88
2023/01/20 11:03:19;;;;;;;27.52;19.65;;;;;;;;;;4933455;29;20047;-86
2023/01/20 11:05:50;;;;;;;25.63;17.88;;;;;;;;;;4931103;29;20060;-89
2023/01/20 11:08:19;;;;;;;19.13;14.68;;;;;;;;;;4910704;29;20048;-87
2023/01/20 11:10:48;;;;;;;19.38;13.63;;;;;;;;;;4916030;29;20039;-88
2023/01/20 11:13:17;;;;;;;17.90;14.73;;;;;;;;;;4916334;29;20059;-87
2023/01/20 11:15:50;;;;;;;20.13;14.10;;;;;;;;;;4916167;29;20528;-88
2023/01/20 11:18:26;;;;;;;23.15;14.75;;;;;;;;;;4900130;29;20048;-87
2023/01/20 11:20:59;;;;;;;22.70;16.83;;;;;;;;;;4915748;29;20059;-87
2023/01/20 11:24:09;;;;;;;17.92;15.93;;;;;;;;;;4922241;29;20059;-87
2023/01/20 11:26:38;;;;;;;25.50;16.23;;;;;;;;;;4920542;29;20560;-87
2023/01/20 11:29:26;;;;;;;18.83;15.60;;;;;;;;;;4905533;29;20047;-89
2023/01/20 11:31:55;;;;;;;17.20;13.75;;;;;;;;;;4937549;29;20060;-87
2023/01/20 11:34:26;;;;;;;21.30;13.82;;;;;;;;;;4908007;29;20521;-87
2023/01/20 11:37:18;;;;;;;29.13;16.27;;;;;;;;;;4920716;29;20063;-87
2023/01/20 11:40:02;;;;;;;15.85;12.38;;;;;;;;;;4904519;29;20051;-88
2023/01/20 11:42:30;;;;;;;18.15;14.35;;;;;;;;;;4905673;29;20064;-87
2023/01/20 11:45:02;;;;;;;21.33;15.30;;;;;;;;;;4908630;29;20047;-87
2023/01/20 11:47:31;;;;;;;23.38;15.27;;;;;;;;;;4909154;29;20787;-86
2023/01/20 11:50:18;;;;;;;17.63;12.88;;;;;;;;;;4923052;29;20062;-89
2023/01/20 11:52:49;;;;;;;14.57;12.90;;;;;;;;;;4923393;29;20055;-87
2023/01/20 11:55:21;;;;;;;17.33;15.10;;;;;;;;;;4907082;29;20051;-88
2023/01/20 11:57:52;;;;;;;17.85;14.32;;;;;;;;;;4920115;29;20066;-87
2023/01/20 12:00:31;;;;;;;35.50;15.25;;;;;;;;;;4925132;29;20056;-87
2023/01/20 12:02:59;;;;;;;15.93;13.68;;;;;;;;;;4912922;29;20043;-87
2023/01/20 12:05:37;;;;;;;20.13;14.25;;;;;;;;;;4915266;29;20052;-89
2023/01/20 12:08:08;;;;;;;18.50;15.00;;;;;;;;;;4915133;29;20048;-87
2023/01/20 12:10:39;;;;;;;17.08;13.77;;;;;;;;;;4929975;29;20047;-87
2023/01/20 12:13:16;;;;;;;19.17;13.18;;;;;;;;;;4914179;29;20059;-87
2023/01/20 12:15:51;;;;;;;15.50;12.82;;;;;;;;;;4914055;29;20058;-88
2023/01/20 12:18:23;;;;;;;16.67;13.93;;;;;;;;;;4912690;29;20046;-87
2023/01/20 12:20:58;;;;;;;15.82;13.05;;;;;;;;;;4914631;29;20063;-88
2023/01/20 12:23:44;;;;;;;22.27;13.10;;;;;;;;;;4932573;29;20497;-89
2023/01/20 12:26:13;;;;;;;15.57;11.65;;;;;;;;;;4945221;28;20047;-87
2023/01/20 12:28:47;;;;;;;22.80;13.43;;;;;;;;;;4909065;29;20052;-88
2023/01/20 12:31:18;;;;;;;20.50;13.98;;;;;;;;;;4920161;29;20521;-88
2023/01/20 12:33:49;;;;;;;14.57;12.73;;;;;;;;;;4917713;29;20690;-86
2023/01/20 12:36:50;;;;;;;17.77;10.85;;;;;;;;;;4937505;29;20048;-88
2023/01/20 12:39:27;;;;;;;15.55;10.18;;;;;;;;;;4915153;29;20421;-88
2023/01/20 12:42:20;;;;;;;15.30;11.63;;;;;;;;;;4919334;29;20039;-87
2023/01/20 12:44:50;;;;;;;18.33;12.03;;;;;;;;;;4923850;29;20445;-87
2023/01/20 12:47:26;;;;;;;12.10;9.30;;;;;;;;;;4913742;29;20066;-87
2023/01/20 12:50:19;;;;;;;16.73;11.13;;;;;;;;;;4966007;23;20065;-81
2023/01/20 12:53:02;;;;;;;13.52;10.25;;;;;;;;;;4971126;28;20042;-82
2023/01/20 12:55:39;;;;;;;13.33;11.47;;;;;;;;;;4952986;28;20059;-82
2023/01/20 12:58:18;;;;;;;15.90;10.32;;;;;;;;;;4934512;28;20059;-82
2023/01/20 13:00:55;;;;;;;19.63;10.65;;;;;;;;;;4970688;28;20047;-82
2023/01/20 13:03:45;;;;;;;11.85;10.27;;;;;;;;;;4965776;28;20055;-82
2023/01/20 13:06:27;;;;;;;16.27;9.65;;;;;;;;;;4964532;28;20046;-82
2023/01/20 13:09:02;;;;;;;18.90;14.80;;;;;;;;;;4934770;28;20051;-82
2023/01/20 13:11:42;;;;;;;16.02;12.98;;;;;;;;;;4972903;28;20042;-82
2023/01/20 13:14:15;;;;;;;12.55;9.65;;;;;;;;;;4948098;28;20050;-82
2023/01/20 13:16:47;;;;;;;13.40;9.63;;;;;;;;;;4963367;28;20054;-82
2023/01/20 13:19:18;;;;;;;14.85;11.02;;;;;;;;;;4937454;28;20280;-82
2023/01/20 13:21:47;;;;;;;12.77;9.82;;;;;;;;;;4972814;28;20053;-83
2023/01/20 13:24:23;;;;;;;12.82;10.35;;;;;;;;;;4970498;28;20058;-83
2023/01/20 13:26:52;;;;;;;11.57;8.82;;;;;;;;;;4972126;28;20073;-82
2023/01/20 13:29:40;;;;;;;12.30;9.85;;;;;;;;;;4969090;28;20065;-83
2023/01/20 13:32:26;;;;;;;10.57;8.95;;;;;;;;;;4953729;28;20054;-83
2023/01/20 13:34:55;;;;;;;15.13;10.45;;;;;;;;;;4955391;28;20055;-82
2023/01/20 13:37:26;;;;;;;9.48;8.48;;;;;;;;;;4966380;28;20047;-82
2023/01/20 13:39:56;;;;;;;10.23;8.35;;;;;;;;;;4949906;28;20501;-82
2023/01/20 13:42:47;;;;;;;12.85;9.93;;;;;;;;;;4971502;28;20050;-82
2023/01/20 13:45:23;;;;;;;12.45;9.00;;;;;;;;;;4954751;28;20069;-82
2023/01/20 13:47:56;;;;;;;9.75;8.23;;;;;;;;;;4945794;28;20054;-82
2023/01/20 13:50:28;;;;;;;12.27;9.48;;;;;;;;;;4953612;28;20531;-82
2023/01/20 13:53:13;;;;;;;13.10;8.98;;;;;;;;;;4942691;28;20059;-82
2023/01/20 13:55:53;;;;;;;18.00;13.52;;;;;;;;;;4953133;28;20515;-82
2023/01/20 13:58:22;;;;;;;29.50;18.60;;;;;;;;;;4951303;28;20046;-82
2023/01/20 14:00:51;;;;;;;25.90;17.52;;;;;;;;;;4969893;28;20501;-82
2023/01/20 14:03:22;;;;;;;32.90;19.67;;;;;;;;;;4967632;28;20043;-82
2023/01/20 14:05:56;;;;;;;21.10;16.13;;;;;;;;;;4935242;28;20054;-82
2023/01/20 14:08:37;;;;;;;15.95;13.75;;;;;;;;;;4966583;28;20548;-82
2023/01/20 14:11:12;;;;;;;16.48;11.23;;;;;;;;;;4961171;28;20051;-83
2023/01/20 14:13:40;;;;;;;14.68;11.30;;;;;;;;;;4966864;28;20046;-82
2023/01/20 14:16:18;;;;;;;13.05;10.75;;;;;;;;;;4950193;29;20051;-82
2023/01/20 14:18:45;;;;;;;15.05;10.93;;;;;;;;;;4966787;28;20399;-82
2023/01/20 14:21:20;;;;;;;12.65;9.90;;;;;;;;;;4927316;29;20465;-83
2023/01/20 14:23:48;;;;;;;14.40;9.75;;;;;;;;;;4952357;28;20497;-83
2023/01/20 14:26:23;;;;;;;13.90;9.45;;;;;;;;;;4972581;28;20508;-83
2023/01/20 14:28:53;;;;;;;13.95;9.15;;;;;;;;;;4969257;28;20532;-83
2023/01/20 14:31:36;;;;;;;17.63;9.70;;;;;;;;;;4971545;28;20490;-83
2023/01/20 14:34:19;;;;;;;14.57;9.35;;;;;;;;;;4944229;28;20038;-83
2023/01/20 14:36:47;;;;;;;11.05;8.50;;;;;;;;;;4953643;28;20059;-83
2023/01/20 14:39:20;;;;;;;17.77;9.80;;;;;;;;;;4947185;28;20484;-83
2023/01/20 14:41:50;;;;;;;11.70;8.85;;;;;;;;;;4965513;28;20055;-83
2023/01/20 14:44:20;;;;;;;16.02;10.57;;;;;;;;;;4946116;28;20050;-83
2023/01/20 14:46:50;;;;;;;10.93;9.38;;;;;;;;;;4950983;28;20043;-82
2023/01/20 14:49:19;;;;;;;14.25;9.70;;;;;;;;;;4879606;28;1711051;-82
2023/01/20 14:51:47;;;;;;;13.23;9.85;;;;;;;;;;4952892;28;20408;-82
2023/01/20 14:54:35;;;;;;;14.52;10.23;;;;;;;;;;4935635;28;20050;-82
2023/01/20 14:57:23;;;;;;;13.88;9.65;;;;;;;;;;4951518;28;20074;-82